Time;durP1;ratioP1;P1;durP2;ratioP2;P2;SDS_P1;SDS_P2;PMS_P1;PMS_P2;Temp;Humidity;BMP_temperature;BMP_pressure;BME280_temperature;BME280_humidity;BME280_pressure;Samples;Min_cycle;Max_cycle;Signal;HPM_P1;HPM_P2
2022/11/18 00:01:34;;;;;;;1.87;0.90;;;;;;;8.50;100.00;96370.75;5076729;28;20227;-68
2022/11/18 00:04:02;;;;;;;0.93;0.90;;;;;;;8.56;100.00;96372.84;5076676;28;20248;-67
2022/11/18 00:06:29;;;;;;;2.00;0.87;;;;;;;8.58;100.00;96363.81;5076607;28;20254;-68
2022/11/18 00:08:57;;;;;;;1.00;0.70;;;;;;;8.59;100.00;96365.50;5076416;28;20250;-68
2022/11/18 00:14:18;;;;;;;0.80;0.70;;;;;;;8.66;100.00;96355.25;5055934;28;20207;-68
2022/11/18 00:16:45;;;;;;;1.27;0.90;;;;;;;8.68;100.00;96364.69;5080623;28;20247;-68
2022/11/18 00:19:12;;;;;;;0.97;0.83;;;;;;;8.71;100.00;96359.16;5080659;28;20304;-68
2022/11/18 00:21:39;;;;;;;1.20;0.80;;;;;;;8.77;100.00;96363.03;5080549;28;20255;-68
2022/11/18 00:24:06;;;;;;;0.67;0.60;;;;;;;8.75;100.00;96359.72;5080459;28;20300;-69
2022/11/18 00:26:32;;;;;;;1.23;0.90;;;;;;;8.77;100.00;96357.75;5080428;28;20279;-68
2022/11/18 00:28:59;;;;;;;0.87;0.77;;;;;;;8.76;100.00;96361.38;5080405;28;20218;-69
2022/11/18 00:31:27;;;;;;;1.53;1.10;;;;;;;8.78;100.00;96359.41;5080258;28;20252;-69
2022/11/18 00:33:54;;;;;;;1.30;0.80;;;;;;;8.76;100.00;96356.91;5080107;28;20251;-69
2022/11/18 00:36:20;;;;;;;2.20;0.87;;;;;;;8.76;100.00;96361.38;5078369;28;20259;-69
2022/11/18 00:38:47;;;;;;;0.87;0.77;;;;;;;8.73;100.00;96359.00;5079979;28;20667;-68
2022/11/18 00:41:15;;;;;;;0.67;0.60;;;;;;;8.72;100.00;96354.69;5080086;28;20261;-68
2022/11/18 00:43:41;;;;;;;0.63;0.60;;;;;;;8.66;100.00;96360.50;5080024;28;20252;-68
2022/11/18 00:46:09;;;;;;;0.70;0.70;;;;;;;8.58;100.00;96361.19;5080236;28;20556;-68
2022/11/18 00:48:38;;;;;;;0.67;0.60;;;;;;;8.52;100.00;96371.44;5079923;28;20219;-67
2022/11/18 00:51:10;;;;;;;0.73;0.67;;;;;;;8.42;100.00;96374.06;5079877;28;20253;-67
2022/11/18 00:53:37;;;;;;;1.50;0.80;;;;;;;8.40;100.00;96370.72;5079958;28;20582;-68
2022/11/18 00:56:04;;;;;;;0.47;0.47;;;;;;;8.41;100.00;96366.31;5079689;28;20324;-68
2022/11/18 00:58:30;;;;;;;0.80;0.73;;;;;;;8.43;100.00;96374.88;5079842;28;20255;-67
2022/11/18 01:00:57;;;;;;;2.40;1.30;;;;;;;8.43;100.00;96372.25;5077904;28;20317;-69
2022/11/18 01:03:24;;;;;;;0.70;0.70;;;;;;;8.41;100.00;96371.56;5079747;28;20655;-68
2022/11/18 01:05:52;;;;;;;1.07;0.90;;;;;;;8.41;100.00;96375.03;5079662;28;20221;-68
2022/11/18 01:08:20;;;;;;;1.10;0.67;;;;;;;8.43;100.00;96375.72;5079643;28;20252;-68
2022/11/18 01:10:48;;;;;;;1.93;0.80;;;;;;;8.48;100.00;96380.56;5079657;28;20259;-68
2022/11/18 01:13:19;;;;;;;1.67;0.90;;;;;;;8.44;100.00;96387.09;5079623;28;20258;-68
2022/11/18 01:15:48;;;;;;;0.80;0.70;;;;;;;8.43;100.00;96385.41;5079711;28;20221;-66
2022/11/18 01:18:15;;;;;;;2.30;0.97;;;;;;;8.41;100.00;96382.94;5079527;28;20567;-68
2022/11/18 01:20:42;;;;;;;1.30;0.77;;;;;;;8.42;100.00;96386.38;5079380;28;20240;-68
2022/11/18 01:23:10;;;;;;;0.60;0.60;;;;;;;8.42;100.00;96386.38;5079345;28;20259;-68
2022/11/18 01:25:38;;;;;;;0.70;0.60;;;;;;;8.42;100.00;96379.34;5078712;28;20250;-67
2022/11/18 01:28:05;;;;;;;0.83;0.80;;;;;;;8.42;100.00;96394.28;5077643;28;20252;-66
2022/11/18 01:30:34;;;;;;;1.70;0.60;;;;;;;8.40;100.00;96391.78;5079360;28;20585;-66
2022/11/18 01:33:02;;;;;;;0.83;0.60;;;;;;;8.42;100.00;96389.00;5079378;28;20250;-67
2022/11/18 01:35:29;;;;;;;1.40;0.70;;;;;;;8.41;100.00;96387.34;5079147;28;20216;-66
2022/11/18 01:37:56;;;;;;;1.43;0.60;;;;;;;8.42;100.00;96389.00;5079122;28;20250;-66
2022/11/18 01:40:28;;;;;;;1.07;0.73;;;;;;;8.38;100.00;96385.00;5078969;28;20289;-66
2022/11/18 01:42:54;;;;;;;0.93;0.60;;;;;;;8.35;100.00;96393.16;5078854;28;20295;-67
2022/11/18 01:45:32;;;;;;;0.73;0.60;;;;;;;8.32;100.00;96393.44;5078866;28;20304;-66
2022/11/18 01:48:05;;;;;;;0.67;0.57;;;;;;;8.32;100.00;96396.06;5078817;28;20261;-66
2022/11/18 01:50:34;;;;;;;0.67;0.40;;;;;;;8.35;100.00;96399.28;5078818;28;20253;-66
2022/11/18 01:53:05;;;;;;;0.87;0.60;;;;;;;8.34;100.00;96396.75;5076895;28;20668;-66
2022/11/18 01:55:37;;;;;;;0.70;0.60;;;;;;;8.36;100.00;96397.44;5078734;28;20354;-66
2022/11/18 01:58:09;;;;;;;0.87;0.60;;;;;;;8.36;100.00;96400.94;5078860;28;20306;-66
2022/11/18 02:00:36;;;;;;;0.57;0.53;;;;;;;8.31;100.00;96391.75;5078622;28;20319;-66
2022/11/18 02:03:04;;;;;;;1.37;0.80;;;;;;;8.33;100.00;96403.00;5078665;28;20251;-66
2022/11/18 02:05:33;;;;;;;1.23;0.60;;;;;;;8.35;100.00;96408.94;5078575;28;20255;-66
2022/11/18 02:08:01;;;;;;;3.13;0.70;;;;;;;8.32;100.00;96404.78;5078392;28;20221;-66
2022/11/18 02:10:27;;;;;;;0.70;0.70;;;;;;;8.31;100.00;96410.19;5078369;28;20247;-65
2022/11/18 02:12:57;;;;;;;1.97;0.90;;;;;;;8.31;100.00;96415.44;5078271;28;20260;-65
2022/11/18 02:15:31;;;;;;;1.00;0.67;;;;;;;8.34;100.00;96412.56;5078684;28;20523;-66
2022/11/18 02:18:07;;;;;;;1.03;0.60;;;;;;;8.33;100.00;96416.97;5077614;28;20253;-65
2022/11/18 02:20:37;;;;;;;0.80;0.50;;;;;;;8.34;100.00;96417.81;5078238;28;20588;-65
2022/11/18 02:23:39;;;;;;;0.87;0.60;;;;;;;8.35;100.00;96422.97;5078254;28;20252;-65
2022/11/18 02:26:36;;;;;;;2.50;0.60;;;;;;;8.32;100.00;96427.66;5078238;28;20254;-65
2022/11/18 02:29:08;;;;;;;0.63;0.63;;;;;;;8.35;100.00;96430.00;5078124;28;20262;-67
2022/11/18 02:31:44;;;;;;;1.87;1.20;;;;;;;8.33;100.00;96421.44;5078030;28;20699;-67
2022/11/18 02:34:20;;;;;;;0.50;0.50;;;;;;;8.33;100.00;96421.44;5077992;28;20603;-65
2022/11/18 02:36:52;;;;;;;0.47;0.37;;;;;;;8.29;100.00;96425.28;5077086;28;20500;-66
2022/11/18 02:39:23;;;;;;;1.40;0.43;;;;;;;8.32;100.00;96419.75;5077845;28;20575;-66
2022/11/18 02:41:51;;;;;;;0.60;0.43;;;;;;;8.32;100.00;96425.84;5077832;28;20346;-68
2022/11/18 02:44:22;;;;;;;1.27;0.70;;;;;;;8.32;100.00;96427.66;5075984;28;20261;-67
2022/11/18 02:46:54;;;;;;;1.60;0.60;;;;;;;8.32;100.00;96425.03;5077891;28;20523;-67
2022/11/18 02:49:25;;;;;;;0.40;0.40;;;;;;;8.34;100.00;96428.34;5077754;28;20255;-67
2022/11/18 02:51:54;;;;;;;1.97;0.60;;;;;;;8.34;100.00;96428.34;5077701;28;20586;-67
2022/11/18 02:54:24;;;;;;;0.80;0.50;;;;;;;8.32;100.00;96428.47;5077617;28;20264;-68
2022/11/18 02:56:52;;;;;;;0.47;0.40;;;;;;;8.33;100.00;96431.94;5077436;28;20275;-68
2022/11/18 02:59:21;;;;;;;0.93;0.60;;;;;;;8.33;100.00;96439.84;5077557;28;20255;-67
2022/11/18 03:01:47;;;;;;;0.77;0.60;;;;;;;8.32;100.00;96440.81;5077417;28;20263;-67
2022/11/18 03:04:17;;;;;;;1.20;0.87;;;;;;;8.32;100.00;96443.44;5077333;28;20264;-67
2022/11/18 03:06:50;;;;;;;0.70;0.60;;;;;;;8.31;100.00;96445.22;5077364;28;20251;-67
2022/11/18 03:09:22;;;;;;;0.83;0.43;;;;;;;8.22;100.00;96453.09;5077313;28;20217;-67
2022/11/18 03:11:56;;;;;;;1.53;0.57;;;;;;;8.20;100.00;96453.22;5076043;28;20251;-67
2022/11/18 03:14:35;;;;;;;2.10;0.60;;;;;;;8.15;100.00;96457.19;5077240;28;20256;-66
2022/11/18 03:17:04;;;;;;;1.30;0.53;;;;;;;8.14;100.00;96463.41;5077360;28;20569;-68
2022/11/18 03:19:46;;;;;;;1.13;0.50;;;;;;;8.10;100.00;96468.13;5077294;28;20582;-68
2022/11/18 03:22:23;;;;;;;1.73;0.40;;;;;;;8.08;100.00;96471.84;5077293;28;20259;-66
2022/11/18 03:24:56;;;;;;;0.73;0.40;;;;;;;8.06;100.00;96477.22;5077190;28;20247;-68
2022/11/18 03:27:28;;;;;;;0.73;0.50;;;;;;;8.02;100.00;96485.50;5077104;28;20597;-66
2022/11/18 03:30:02;;;;;;;0.87;0.60;;;;;;;8.06;100.00;96486.91;5077118;28;20585;-67
2022/11/18 03:32:31;;;;;;;2.17;0.80;;;;;;;8.06;100.00;96486.91;5077107;28;20215;-67
2022/11/18 03:35:04;;;;;;;2.57;0.60;;;;;;;8.13;100.00;96493.31;5077058;28;20262;-67
2022/11/18 03:37:33;;;;;;;0.80;0.60;;;;;;;8.12;100.00;96507.44;5075295;28;20299;-67
2022/11/18 03:40:06;;;;;;;1.00;0.60;;;;;;;8.15;100.00;96508.00;5076911;28;20317;-67
2022/11/18 03:42:37;;;;;;;1.20;0.50;;;;;;;8.16;100.00;96503.56;5077080;28;20254;-67
2022/11/18 03:45:11;;;;;;;0.53;0.43;;;;;;;8.14;100.00;96516.84;5076937;28;20262;-67
2022/11/18 03:47:42;;;;;;;0.93;0.50;;;;;;;8.16;100.00;96516.75;5076778;28;20271;-68
2022/11/18 03:50:14;;;;;;;0.50;0.50;;;;;;;8.18;100.00;96527.94;5076793;28;20411;-67
2022/11/18 03:52:42;;;;;;;1.30;0.40;;;;;;;8.22;100.00;96526.78;5076960;28;20567;-66
2022/11/18 03:55:13;;;;;;;1.10;0.70;;;;;;;8.25;100.00;96531.75;5076763;28;20259;-67
2022/11/18 03:57:47;;;;;;;1.20;0.67;;;;;;;8.19;100.00;96524.34;5076878;28;20271;-66
2022/11/18 04:00:19;;;;;;;1.13;0.63;;;;;;;8.18;100.00;96533.22;5076707;28;20314;-66
2022/11/18 04:02:48;;;;;;;1.00;0.53;;;;;;;8.10;100.00;96536.53;5075035;28;20219;-67
2022/11/18 04:05:18;;;;;;;0.63;0.37;;;;;;;8.13;100.00;96545.91;5076795;28;20298;-66
2022/11/18 04:07:53;;;;;;;0.40;0.40;;;;;;;8.04;100.00;96541.44;5076635;28;20216;-67
2022/11/18 04:10:24;;;;;;;1.00;0.50;;;;;;;8.00;100.00;96534.78;5076565;28;20251;-68
2022/11/18 04:12:57;;;;;;;0.63;0.40;;;;;;;7.97;100.00;96551.63;5076918;28;20580;-67
2022/11/18 04:15:26;;;;;;;0.50;0.40;;;;;;;8.00;100.00;96545.28;5076561;28;20298;-67
2022/11/18 04:17:53;;;;;;;0.60;0.40;;;;;;;7.98;100.00;96557.75;5076588;28;20255;-67
2022/11/18 04:20:21;;;;;;;0.60;0.30;;;;;;;8.00;100.00;96547.91;5076518;28;20318;-67
2022/11/18 04:22:48;;;;;;;0.57;0.40;;;;;;;7.97;100.00;96551.63;5076429;28;20263;-67
2022/11/18 04:25:15;;;;;;;0.57;0.47;;;;;;;7.96;100.00;96554.44;5076463;28;20251;-67
2022/11/18 04:27:42;;;;;;;0.70;0.50;;;;;;;7.91;100.00;96557.41;5074814;28;20251;-67
2022/11/18 04:30:10;;;;;;;2.07;0.60;;;;;;;7.93;100.00;96554.66;5076416;28;20291;-67
2022/11/18 04:32:38;;;;;;;0.77;0.60;;;;;;;7.89;100.00;96558.53;5076457;28;20299;-68
2022/11/18 04:35:05;;;;;;;0.50;0.50;;;;;;;7.90;100.00;96558.38;5076499;28;20303;-69
2022/11/18 04:37:32;;;;;;;0.40;0.40;;;;;;;7.87;100.00;96557.81;5076408;28;20251;-67
2022/11/18 04:39:58;;;;;;;0.43;0.43;;;;;;;7.80;100.00;96561.91;5076301;28;20276;-69
2022/11/18 04:42:25;;;;;;;0.67;0.50;;;;;;;7.77;100.00;96559.56;5076409;28;20255;-68
2022/11/18 04:44:52;;;;;;;2.00;0.60;;;;;;;7.74;100.00;96563.25;5076201;28;20259;-68
2022/11/18 04:47:18;;;;;;;0.40;0.40;;;;;;;7.79;100.00;96557.63;5076288;28;20253;-68
2022/11/18 04:49:46;;;;;;;0.43;0.40;;;;;;;7.69;100.00;96552.28;5076384;28;20255;-67
2022/11/18 04:52:14;;;;;;;1.00;0.50;;;;;;;7.66;100.00;96549.91;5076307;28;20259;-68
2022/11/18 04:54:41;;;;;;;0.50;0.37;;;;;;;7.65;100.00;96552.69;5074472;28;20642;-69
2022/11/18 04:57:07;;;;;;;0.40;0.40;;;;;;;7.65;100.00;96563.19;5076075;28;20301;-68
2022/11/18 04:59:34;;;;;;;0.40;0.40;;;;;;;7.62;100.00;96560.78;5076216;28;20265;-68
2022/11/18 05:02:01;;;;;;;0.37;0.37;;;;;;;7.61;100.00;96559.97;5079450;28;20282;-68
2022/11/18 05:04:30;;;;;;;0.30;0.30;;;;;;;7.62;100.00;96566.06;5079873;28;20280;-68
2022/11/18 05:06:58;;;;;;;0.33;0.33;;;;;;;7.62;100.00;96576.56;5079851;28;20298;-67
2022/11/18 05:09:25;;;;;;;1.67;0.57;;;;;;;7.61;100.00;96574.91;5079671;28;20259;-68
2022/11/18 05:14:37;;;;;;;0.50;0.40;;;;;;;7.65;100.00;96581.59;5079752;28;20202;-67
2022/11/18 05:17:05;;;;;;;0.80;0.50;;;;;;;7.65;100.00;96581.59;5079889;28;20246;-68
2022/11/18 05:19:31;;;;;;;0.77;0.47;;;;;;;7.62;100.00;96587.09;5077871;28;20684;-67
2022/11/18 05:22:00;;;;;;;1.13;0.60;;;;;;;7.61;100.00;96595.94;5079494;28;20282;-67
2022/11/18 05:24:26;;;;;;;0.40;0.40;;;;;;;7.48;100.00;96584.75;5079405;28;20537;-66
2022/11/18 05:26:54;;;;;;;0.80;0.40;;;;;;;7.43;100.00;96592.19;5079370;28;20258;-66
2022/11/18 05:29:21;;;;;;;0.70;0.30;;;;;;;7.39;100.00;96598.63;5079336;28;20626;-66
2022/11/18 05:31:49;;;;;;;0.60;0.40;;;;;;;7.32;100.00;96590.41;5079333;28;20261;-67
2022/11/18 05:34:16;;;;;;;0.33;0.33;;;;;;;7.26;100.00;96597.13;5079277;28;20254;-67
2022/11/18 05:36:43;;;;;;;0.40;0.40;;;;;;;7.22;100.00;96593.91;5079146;28;20302;-67
2022/11/18 05:39:11;;;;;;;0.77;0.50;;;;;;;7.27;100.00;96602.25;5079313;28;20301;-66
2022/11/18 05:44:21;;;;;;;0.50;0.50;;;;;;;7.31;100.00;96608.94;5077408;28;20214;-68
2022/11/18 05:46:48;;;;;;;2.03;0.50;;;;;;;7.29;100.00;96610.84;5078907;28;20251;-68
2022/11/18 05:49:15;;;;;;;0.67;0.40;;;;;;;7.32;100.00;96621.09;5078935;28;20262;-67
2022/11/18 05:51:41;;;;;;;0.33;0.30;;;;;;;7.36;100.00;96619.91;5078777;28;20298;-66
2022/11/18 05:54:09;;;;;;;0.40;0.40;;;;;;;7.36;100.00;96618.09;5078774;28;20262;-67
2022/11/18 05:56:43;;;;;;;1.00;0.60;;;;;;;7.38;100.00;96617.16;5078802;28;20282;-67
2022/11/18 05:59:10;;;;;;;0.70;0.50;;;;;;;7.42;100.00;96611.53;5078779;28;20229;-67
2022/11/18 06:01:43;;;;;;;0.90;0.70;;;;;;;7.41;100.00;96621.19;5078789;28;20276;-66
2022/11/18 06:04:15;;;;;;;0.40;0.40;;;;;;;7.40;100.00;96623.94;5078819;28;20254;-67
2022/11/18 06:06:42;;;;;;;1.60;0.53;;;;;;;7.38;100.00;96626.72;5078769;28;20266;-68
2022/11/18 06:09:11;;;;;;;0.43;0.43;;;;;;;7.40;100.00;96630.06;5078599;28;20266;-67
2022/11/18 06:11:44;;;;;;;0.87;0.60;;;;;;;7.42;100.00;96633.38;5076802;28;20254;-68
2022/11/18 06:14:14;;;;;;;1.20;0.73;;;;;;;7.47;100.00;96638.28;5078587;28;20328;-67
2022/11/18 06:16:46;;;;;;;0.50;0.50;;;;;;;7.45;100.00;96632.31;5078497;28;20255;-68
2022/11/18 06:19:12;;;;;;;0.77;0.60;;;;;;;7.42;100.00;96637.81;5078916;28;20255;-67
2022/11/18 06:21:39;;;;;;;0.60;0.60;;;;;;;7.39;100.00;96643.31;5078483;28;20409;-69
2022/11/18 06:24:08;;;;;;;0.53;0.50;;;;;;;7.40;100.00;96634.47;5078218;28;20250;-69
2022/11/18 06:26:35;;;;;;;0.43;0.40;;;;;;;7.35;100.00;96642.72;5078303;28;20223;-67
2022/11/18 06:29:05;;;;;;;0.77;0.57;;;;;;;7.38;100.00;96646.91;5078185;28;20261;-68
2022/11/18 06:31:32;;;;;;;0.47;0.47;;;;;;;7.38;100.00;96644.25;5078091;28;20247;-67
2022/11/18 06:33:58;;;;;;;0.50;0.50;;;;;;;7.40;100.00;96651.06;5077894;28;20277;-67
2022/11/18 06:36:25;;;;;;;0.53;0.50;;;;;;;7.40;100.00;96650.22;5076264;28;20254;-67
2022/11/18 06:38:52;;;;;;;0.60;0.50;;;;;;;7.44;100.00;96663.03;5078062;28;20256;-68
2022/11/18 06:41:18;;;;;;;0.33;0.30;;;;;;;7.47;100.00;96661.94;5078007;28;20270;-67
2022/11/18 06:43:45;;;;;;;1.57;0.60;;;;;;;7.54;100.00;96668.38;5078001;28;20263;-68
2022/11/18 06:48:59;;;;;;;0.50;0.50;;;;;;;7.62;100.00;96673.84;5077951;28;20230;-67
2022/11/18 06:51:26;;;;;;;1.47;0.60;;;;;;;7.63;100.00;96683.41;5077772;28;20251;-68
2022/11/18 06:53:53;;;;;;;1.03;0.60;;;;;;;7.65;100.00;96681.50;5077746;28;20258;-68
2022/11/18 06:56:22;;;;;;;0.57;0.50;;;;;;;7.65;100.00;96690.22;5077648;28;20270;-68
2022/11/18 06:58:53;;;;;;;1.40;0.47;;;;;;;7.58;100.00;96686.41;5077587;28;20256;-67
2022/11/18 07:01:24;;;;;;;0.83;0.60;;;;;;;7.60;100.00;96694.19;5077208;28;20239;-67
2022/11/18 07:03:51;;;;;;;0.87;0.40;;;;;;;7.52;100.00;96693.94;5076395;28;20251;-67
2022/11/18 07:06:20;;;;;;;0.40;0.40;;;;;;;7.41;100.00;96693.97;5077388;28;20298;-68
2022/11/18 07:08:47;;;;;;;2.57;0.63;;;;;;;7.43;100.00;96705.19;5077402;28;20568;-67
2022/11/18 07:11:16;;;;;;;0.70;0.53;;;;;;;7.40;100.00;96708.88;5077251;28;20303;-67
2022/11/18 07:13:43;;;;;;;2.03;0.90;;;;;;;7.42;100.00;96709.59;5077259;28;20262;-68
2022/11/18 07:16:12;;;;;;;0.60;0.60;;;;;;;7.50;100.00;96714.25;5077312;28;20664;-67
2022/11/18 07:18:41;;;;;;;0.87;0.50;;;;;;;7.52;100.00;96722.84;5077341;28;20216;-68
2022/11/18 07:21:11;;;;;;;1.63;0.60;;;;;;;7.56;100.00;96722.50;5077317;28;20240;-68
2022/11/18 07:23:37;;;;;;;0.80;0.70;;;;;;;7.58;100.00;96717.09;5076690;28;20255;-67
2022/11/18 07:26:05;;;;;;;0.60;0.60;;;;;;;7.61;100.00;96727.38;5077183;28;20219;-67
2022/11/18 07:28:32;;;;;;;0.60;0.60;;;;;;;7.65;100.00;96734.09;5075622;28;20254;-67
2022/11/18 07:31:03;;;;;;;0.50;0.50;;;;;;;7.67;100.00;96732.16;5077097;28;20251;-67
2022/11/18 07:33:30;;;;;;;0.63;0.63;;;;;;;7.70;100.00;96731.91;5077166;28;20234;-67
2022/11/18 07:36:00;;;;;;;0.60;0.60;;;;;;;7.75;100.00;96729.75;5077148;28;20258;-69
2022/11/18 07:38:27;;;;;;;1.23;0.70;;;;;;;7.76;100.00;96727.00;5077096;28;20251;-69
2022/11/18 07:40:53;;;;;;;2.37;1.00;;;;;;;7.79;100.00;96741.69;5077076;28;20271;-69
2022/11/18 07:43:20;;;;;;;1.53;0.50;;;;;;;7.80;100.00;96746.00;5077408;28;20250;-69
2022/11/18 07:45:47;;;;;;;1.93;0.70;;;;;;;7.81;100.00;96756.41;5077124;28;20252;-67
2022/11/18 07:48:13;;;;;;;1.33;0.50;;;;;;;7.79;100.00;96755.66;5076893;28;20220;-67
2022/11/18 07:50:40;;;;;;;0.90;0.77;;;;;;;7.81;100.00;96750.28;5076744;28;20263;-69
2022/11/18 07:53:08;;;;;;;0.60;0.60;;;;;;;7.81;100.00;96760.81;5075874;28;20255;-68
2022/11/18 07:55:34;;;;;;;3.13;0.70;;;;;;;7.83;100.00;96772.06;5076365;28;20302;-68
2022/11/18 07:58:01;;;;;;;0.73;0.70;;;;;;;7.86;100.00;96769.19;5077024;28;20251;-68
2022/11/18 08:00:28;;;;;;;0.70;0.60;;;;;;;7.85;100.00;96767.50;5076863;28;20263;-68
2022/11/18 08:02:54;;;;;;;0.97;0.90;;;;;;;7.89;100.00;96775.03;5076862;28;20276;-68
2022/11/18 08:05:21;;;;;;;0.93;0.80;;;;;;;7.90;100.00;96771.44;5076978;28;20256;-70
2022/11/18 08:07:48;;;;;;;0.80;0.80;;;;;;;7.92;100.00;96773.94;5076791;28;20216;-70
2022/11/18 08:10:16;;;;;;;1.07;0.80;;;;;;;7.90;100.00;96775.88;5076852;28;20574;-70
2022/11/18 08:12:43;;;;;;;0.87;0.87;;;;;;;7.95;100.00;96776.34;5076767;28;20511;-68
2022/11/18 08:15:10;;;;;;;1.50;0.90;;;;;;;8.00;100.00;96782.06;5076769;28;20294;-68
2022/11/18 08:17:37;;;;;;;0.90;0.90;;;;;;;8.08;100.00;96784.94;5076541;28;20840;-73
2022/11/18 08:20:04;;;;;;;0.83;0.73;;;;;;;8.12;100.00;96786.34;5075176;28;20826;-74
2022/11/18 08:22:30;;;;;;;0.80;0.80;;;;;;;8.09;100.00;96787.41;5076550;28;20282;-74
2022/11/18 08:24:57;;;;;;;1.33;0.70;;;;;;;8.13;100.00;96793.25;5076597;28;20258;-74
2022/11/18 08:27:25;;;;;;;0.70;0.70;;;;;;;8.17;100.00;96795.53;5076664;28;20263;-74
2022/11/18 08:29:52;;;;;;;0.80;0.70;;;;;;;8.24;100.00;96801.16;5076656;28;20267;-74
2022/11/18 08:32:18;;;;;;;2.30;0.60;;;;;;;8.26;100.00;96804.53;5076724;28;20260;-74
2022/11/18 08:34:45;;;;;;;0.77;0.77;;;;;;;8.28;100.00;96805.22;5076569;28;20252;-74
2022/11/18 08:37:11;;;;;;;0.70;0.70;;;;;;;8.29;100.00;96804.25;5080307;28;20266;-73
2022/11/18 08:39:38;;;;;;;1.33;0.53;;;;;;;8.30;100.00;96811.19;5080348;28;20217;-73
2022/11/18 08:42:05;;;;;;;0.63;0.60;;;;;;;8.32;100.00;96807.47;5080349;28;20279;-74
2022/11/18 08:44:33;;;;;;;1.10;0.60;;;;;;;8.39;100.00;96810.47;5079659;28;20262;-73
2022/11/18 08:47:00;;;;;;;0.50;0.50;;;;;;;8.42;100.00;96812.84;5079489;28;20217;-73
2022/11/18 08:49:27;;;;;;;1.77;0.70;;;;;;;8.43;100.00;96817.13;5080214;28;20604;-73
2022/11/18 08:51:54;;;;;;;1.17;0.53;;;;;;;8.47;100.00;96823.84;5080265;28;20260;-73
2022/11/18 08:54:21;;;;;;;0.77;0.60;;;;;;;8.51;100.00;96820.00;5080067;28;20277;-73
2022/11/18 08:56:49;;;;;;;0.67;0.60;;;;;;;8.51;100.00;96826.09;5079999;28;20617;-73
2022/11/18 08:59:16;;;;;;;2.63;0.60;;;;;;;8.50;100.00;96821.78;5080416;28;20279;-74
2022/11/18 09:01:44;;;;;;;0.90;0.60;;;;;;;8.58;100.00;96821.16;5080402;28;20307;-75
2022/11/18 09:04:11;;;;;;;1.57;0.73;;;;;;;8.64;100.00;96823.28;5080063;28;20221;-76
2022/11/18 09:06:39;;;;;;;0.80;0.80;;;;;;;8.66;100.00;96830.13;5079868;28;20266;-76
2022/11/18 09:09:06;;;;;;;0.70;0.60;;;;;;;8.69;100.00;96831.66;5079860;28;20255;-75
2022/11/18 09:11:33;;;;;;;0.70;0.70;;;;;;;8.69;100.00;96839.56;5078052;28;20262;-75
2022/11/18 09:14:00;;;;;;;0.70;0.50;;;;;;;8.72;100.00;96839.28;5079690;28;20676;-75
2022/11/18 09:16:29;;;;;;;0.93;0.50;;;;;;;8.74;100.00;96843.47;5079590;28;20259;-75
2022/11/18 09:18:57;;;;;;;0.60;0.53;;;;;;;8.76;100.00;96843.34;5079537;28;20256;-75
2022/11/18 09:21:25;;;;;;;1.17;0.70;;;;;;;8.76;100.00;96848.63;5079425;28;20271;-76
2022/11/18 09:23:51;;;;;;;1.83;0.90;;;;;;;8.82;100.00;96850.75;5079528;28;20260;-76
2022/11/18 09:26:20;;;;;;;1.00;0.60;;;;;;;8.84;100.00;96848.81;5079463;28;20257;-73
2022/11/18 09:28:47;;;;;;;0.60;0.60;;;;;;;8.88;100.00;96850.25;5078011;28;20259;-76
2022/11/18 09:31:16;;;;;;;0.90;0.60;;;;;;;8.87;100.00;96841.50;5076573;28;20244;-75
2022/11/18 09:33:43;;;;;;;0.60;0.60;;;;;;;8.87;100.00;96848.59;5078781;28;20643;-78
2022/11/18 09:36:15;;;;;;;0.40;0.40;;;;;;;8.83;100.00;96852.44;5078689;28;20259;-78
2022/11/18 09:38:42;;;;;;;0.50;0.50;;;;;;;8.88;100.00;96858.16;5078725;28;20273;-77
2022/11/18 09:41:23;;;;;;;0.90;0.50;;;;;;;8.83;100.00;96863.81;5079249;28;20216;-78
2022/11/18 09:44:02;;;;;;;1.57;0.60;;;;;;;8.78;100.00;96865.13;5079120;28;20633;-76
2022/11/18 09:46:37;;;;;;;0.70;0.60;;;;;;;8.76;100.00;96872.34;5078108;28;20442;-70
